sensor_id;sensor_type;location;lat;lon;timestamp;temperature;humidity
12335;DHT22;6233;51.560;9.986;2022-10-31T00:02:01;15.50;99.90
12335;DHT22;6233;51.560;9.986;2022-10-31T00:05:02;15.50;99.90
12335;DHT22;6233;51.560;9.986;2022-10-31T00:08:04;15.40;99.90
12335;DHT22;6233;51.560;9.986;2022-10-31T00:11:09;15.40;99.90
12335;DHT22;6233;51.560;9.986;2022-10-31T00:14:11;15.30;99.90
12335;DHT22;6233;51.560;9.986;2022-10-31T00:17:39;15.30;99.90
12335;DHT22;6233;51.560;9.986;2022-10-31T00:20:41;15.20;99.90
12335;DHT22;6233;51.560;9.986;2022-10-31T00:23:43;15.10;99.90
12335;DHT22;6233;51.560;9.986;2022-10-31T00:26:44;15.10;99.90
12335;DHT22;6233;51.560;9.986;2022-10-31T00:29:46;15.10;99.90
12335;DHT22;6233;51.560;9.986;2022-10-31T00:32:47;15.00;99.90
12335;DHT22;6233;51.560;9.986;2022-10-31T00:35:50;15.00;99.90
12335;DHT22;6233;51.560;9.986;2022-10-31T00:38:52;15.00;99.90
12335;DHT22;6233;51.560;9.986;2022-10-31T00:41:53;15.00;99.90
12335;DHT22;6233;51.560;9.986;2022-10-31T00:44:55;15.00;99.90
12335;DHT22;6233;51.560;9.986;2022-10-31T00:47:56;15.00;99.90
12335;DHT22;6233;51.560;9.986;2022-10-31T00:50:58;15.00;99.90
12335;DHT22;6233;51.560;9.986;2022-10-31T00:54:00;15.00;99.90
12335;DHT22;6233;51.560;9.986;2022-10-31T00:57:02;14.90;99.90
12335;DHT22;6233;51.560;9.986;2022-10-31T01:00:04;14.90;99.90
12335;DHT22;6233;51.560;9.986;2022-10-31T01:03:07;14.90;99.90
12335;DHT22;6233;51.560;9.986;2022-10-31T01:06:11;14.90;99.90
12335;DHT22;6233;51.560;9.986;2022-10-31T01:09:13;14.80;99.90
12335;DHT22;6233;51.560;9.986;2022-10-31T01:12:15;14.80;99.90
12335;DHT22;6233;51.560;9.986;2022-10-31T01:15:21;14.80;99.90
12335;DHT22;6233;51.560;9.986;2022-10-31T01:18:26;14.80;99.90
12335;DHT22;6233;51.560;9.986;2022-10-31T01:21:29;14.90;99.90
12335;DHT22;6233;51.560;9.986;2022-10-31T01:24:33;14.80;99.90
12335;DHT22;6233;51.560;9.986;2022-10-31T01:27:35;14.90;99.90
12335;DHT22;6233;51.560;9.986;2022-10-31T01:30:39;14.80;99.90
12335;DHT22;6233;51.560;9.986;2022-10-31T01:33:43;14.80;99.90
12335;DHT22;6233;51.560;9.986;2022-10-31T01:36:45;14.80;99.90
12335;DHT22;6233;51.560;9.986;2022-10-31T01:39:48;14.70;99.90
12335;DHT22;6233;51.560;9.986;2022-10-31T01:42:50;14.70;99.90
12335;DHT22;6233;51.560;9.986;2022-10-31T01:46:01;14.70;99.90
12335;DHT22;6233;51.560;9.986;2022-10-31T01:49:45;14.60;99.90
12335;DHT22;6233;51.560;9.986;2022-10-31T01:52:47;14.60;99.90
12335;DHT22;6233;51.560;9.986;2022-10-31T01:55:51;14.50;99.90
12335;DHT22;6233;51.560;9.986;2022-10-31T01:58:54;14.50;99.90
12335;DHT22;6233;51.560;9.986;2022-10-31T02:01:57;14.50;99.90
12335;DHT22;6233;51.560;9.986;2022-10-31T02:05:01;14.40;99.90
12335;DHT22;6233;51.560;9.986;2022-10-31T02:08:13;14.40;99.90
12335;DHT22;6233;51.560;9.986;2022-10-31T02:11:17;14.30;99.90
12335;DHT22;6233;51.560;9.986;2022-10-31T02:14:22;14.30;99.90
12335;DHT22;6233;51.560;9.986;2022-10-31T02:17:24;14.30;99.90
12335;DHT22;6233;51.560;9.986;2022-10-31T02:20:32;14.30;99.90
12335;DHT22;6233;51.560;9.986;2022-10-31T02:24:07;14.30;99.90
12335;DHT22;6233;51.560;9.986;2022-10-31T02:27:37;14.30;99.90
12335;DHT22;6233;51.560;9.986;2022-10-31T02:37:35;14.10;99.90
12335;DHT22;6233;51.560;9.986;2022-10-31T02:41:19;14.10;99.90
12335;DHT22;6233;51.560;9.986;2022-10-31T02:44:35;14.10;99.90
12335;DHT22;6233;51.560;9.986;2022-10-31T02:47:38;14.00;99.90
12335;DHT22;6233;51.560;9.986;2022-10-31T02:50:42;13.90;99.90
12335;DHT22;6233;51.560;9.986;2022-10-31T02:53:46;13.90;99.90
12335;DHT22;6233;51.560;9.986;2022-10-31T02:57:08;13.90;99.90
12335;DHT22;6233;51.560;9.986;2022-10-31T03:00:10;13.90;99.90
12335;DHT22;6233;51.560;9.986;2022-10-31T03:03:29;13.90;99.90
12335;DHT22;6233;51.560;9.986;2022-10-31T03:06:41;13.90;99.90
12335;DHT22;6233;51.560;9.986;2022-10-31T03:09:55;13.90;99.90
12335;DHT22;6233;51.560;9.986;2022-10-31T03:19:29;13.70;99.90
12335;DHT22;6233;51.560;9.986;2022-10-31T03:22:36;13.70;99.90
12335;DHT22;6233;51.560;9.986;2022-10-31T03:25:41;13.70;99.90
12335;DHT22;6233;51.560;9.986;2022-10-31T03:29:16;13.70;99.90
12335;DHT22;6233;51.560;9.986;2022-10-31T03:32:23;13.70;99.90
12335;DHT22;6233;51.560;9.986;2022-10-31T03:35:28;13.80;99.90
12335;DHT22;6233;51.560;9.986;2022-10-31T03:38:32;13.80;99.90
12335;DHT22;6233;51.560;9.986;2022-10-31T03:41:40;13.80;99.90
12335;DHT22;6233;51.560;9.986;2022-10-31T03:44:46;13.70;99.90
12335;DHT22;6233;51.560;9.986;2022-10-31T03:47:48;13.70;99.90
12335;DHT22;6233;51.560;9.986;2022-10-31T03:50:58;13.60;99.90
12335;DHT22;6233;51.560;9.986;2022-10-31T03:54:24;13.50;99.90
12335;DHT22;6233;51.560;9.986;2022-10-31T03:57:32;13.50;99.90
12335;DHT22;6233;51.560;9.986;2022-10-31T04:00:39;13.40;99.90
12335;DHT22;6233;51.560;9.986;2022-10-31T04:03:43;13.50;99.90
12335;DHT22;6233;51.560;9.986;2022-10-31T04:06:47;13.40;99.90
12335;DHT22;6233;51.560;9.986;2022-10-31T04:09:51;13.50;99.90
12335;DHT22;6233;51.560;9.986;2022-10-31T04:12:58;13.50;99.90
12335;DHT22;6233;51.560;9.986;2022-10-31T04:16:02;13.50;99.90
12335;DHT22;6233;51.560;9.986;2022-10-31T04:19:04;13.50;99.90
12335;DHT22;6233;51.560;9.986;2022-10-31T04:22:06;13.40;99.90
12335;DHT22;6233;51.560;9.986;2022-10-31T04:25:08;13.40;99.90
12335;DHT22;6233;51.560;9.986;2022-10-31T04:28:10;13.40;99.90
12335;DHT22;6233;51.560;9.986;2022-10-31T04:31:12;13.30;99.90
12335;DHT22;6233;51.560;9.986;2022-10-31T04:34:14;13.40;99.90
12335;DHT22;6233;51.560;9.986;2022-10-31T04:37:16;13.40;99.90
12335;DHT22;6233;51.560;9.986;2022-10-31T04:40:17;13.30;99.90
12335;DHT22;6233;51.560;9.986;2022-10-31T04:43:19;13.20;99.90
12335;DHT22;6233;51.560;9.986;2022-10-31T04:46:25;13.20;99.90
12335;DHT22;6233;51.560;9.986;2022-10-31T04:49:27;13.10;99.90
12335;DHT22;6233;51.560;9.986;2022-10-31T04:52:29;13.10;99.90
12335;DHT22;6233;51.560;9.986;2022-10-31T04:55:30;13.10;99.90
12335;DHT22;6233;51.560;9.986;2022-10-31T04:58:32;13.10;99.90
12335;DHT22;6233;51.560;9.986;2022-10-31T05:01:34;13.10;99.90
12335;DHT22;6233;51.560;9.986;2022-10-31T05:04:37;13.10;99.90
12335;DHT22;6233;51.560;9.986;2022-10-31T05:07:40;13.00;99.90
12335;DHT22;6233;51.560;9.986;2022-10-31T05:10:42;13.00;99.90
12335;DHT22;6233;51.560;9.986;2022-10-31T05:13:44;13.00;99.90
12335;DHT22;6233;51.560;9.986;2022-10-31T05:16:46;13.00;99.90
12335;DHT22;6233;51.560;9.986;2022-10-31T05:19:47;13.00;99.90
12335;DHT22;6233;51.560;9.986;2022-10-31T05:22:51;13.00;99.90
12335;DHT22;6233;51.560;9.986;2022-10-31T05:25:53;13.00;99.90
12335;DHT22;6233;51.560;9.986;2022-10-31T05:28:55;12.90;99.90
12335;DHT22;6233;51.560;9.986;2022-10-31T05:31:58;12.90;99.90
12335;DHT22;6233;51.560;9.986;2022-10-31T05:35:00;12.90;99.90
12335;DHT22;6233;51.560;9.986;2022-10-31T05:38:01;12.80;99.90
12335;DHT22;6233;51.560;9.986;2022-10-31T05:41:03;12.70;99.90
12335;DHT22;6233;51.560;9.986;2022-10-31T05:44:05;12.70;99.90
12335;DHT22;6233;51.560;9.986;2022-10-31T05:47:07;12.70;99.90
12335;DHT22;6233;51.560;9.986;2022-10-31T05:50:09;12.70;99.90
12335;DHT22;6233;51.560;9.986;2022-10-31T05:53:11;12.70;99.90
12335;DHT22;6233;51.560;9.986;2022-10-31T05:56:13;12.70;99.90
12335;DHT22;6233;51.560;9.986;2022-10-31T05:59:14;12.70;99.90
12335;DHT22;6233;51.560;9.986;2022-10-31T06:02:16;12.80;99.90
12335;DHT22;6233;51.560;9.986;2022-10-31T06:05:17;12.70;99.90
12335;DHT22;6233;51.560;9.986;2022-10-31T06:08:19;12.70;99.90
12335;DHT22;6233;51.560;9.986;2022-10-31T06:11:38;12.60;99.90
12335;DHT22;6233;51.560;9.986;2022-10-31T06:14:40;12.60;99.90
12335;DHT22;6233;51.560;9.986;2022-10-31T06:17:41;12.60;99.90
12335;DHT22;6233;51.560;9.986;2022-10-31T06:20:46;12.60;99.90
12335;DHT22;6233;51.560;9.986;2022-10-31T06:23:48;12.60;99.90
12335;DHT22;6233;51.560;9.986;2022-10-31T06:26:49;12.60;99.90
12335;DHT22;6233;51.560;9.986;2022-10-31T06:29:51;12.70;99.90
12335;DHT22;6233;51.560;9.986;2022-10-31T06:32:53;12.70;99.90
12335;DHT22;6233;51.560;9.986;2022-10-31T06:35:55;12.70;99.90
12335;DHT22;6233;51.560;9.986;2022-10-31T06:38:56;12.70;99.90
12335;DHT22;6233;51.560;9.986;2022-10-31T06:41:58;12.70;99.90
12335;DHT22;6233;51.560;9.986;2022-10-31T06:45:00;12.80;99.90
12335;DHT22;6233;51.560;9.986;2022-10-31T06:48:03;12.80;99.90
12335;DHT22;6233;51.560;9.986;2022-10-31T06:51:23;12.90;99.90
12335;DHT22;6233;51.560;9.986;2022-10-31T06:54:25;12.90;99.90
12335;DHT22;6233;51.560;9.986;2022-10-31T06:57:26;13.00;99.90
12335;DHT22;6233;51.560;9.986;2022-10-31T07:00:31;13.00;99.90
12335;DHT22;6233;51.560;9.986;2022-10-31T07:03:33;13.10;99.90
12335;DHT22;6233;51.560;9.986;2022-10-31T07:06:35;13.10;99.90
12335;DHT22;6233;51.560;9.986;2022-10-31T07:09:37;13.20;99.90
12335;DHT22;6233;51.560;9.986;2022-10-31T07:12:38;13.20;99.90
12335;DHT22;6233;51.560;9.986;2022-10-31T07:15:42;13.40;99.90
12335;DHT22;6233;51.560;9.986;2022-10-31T07:18:44;13.50;99.90
12335;DHT22;6233;51.560;9.986;2022-10-31T07:21:45;13.50;99.90
12335;DHT22;6233;51.560;9.986;2022-10-31T07:24:47;13.60;99.90
12335;DHT22;6233;51.560;9.986;2022-10-31T07:27:49;13.70;99.90
12335;DHT22;6233;51.560;9.986;2022-10-31T07:30:55;13.90;99.90
12335;DHT22;6233;51.560;9.986;2022-10-31T07:33:58;14.00;99.90
12335;DHT22;6233;51.560;9.986;2022-10-31T07:37:00;14.10;99.90
12335;DHT22;6233;51.560;9.986;2022-10-31T07:40:03;14.20;99.90
12335;DHT22;6233;51.560;9.986;2022-10-31T07:43:05;14.40;99.90
12335;DHT22;6233;51.560;9.986;2022-10-31T07:46:16;14.50;99.90
12335;DHT22;6233;51.560;9.986;2022-10-31T07:49:18;14.70;99.90
12335;DHT22;6233;51.560;9.986;2022-10-31T07:52:20;15.00;99.90
12335;DHT22;6233;51.560;9.986;2022-10-31T07:55:21;15.20;99.90
12335;DHT22;6233;51.560;9.986;2022-10-31T07:58:23;15.40;99.90
12335;DHT22;6233;51.560;9.986;2022-10-31T08:01:31;15.60;99.90
12335;DHT22;6233;51.560;9.986;2022-10-31T08:04:36;15.90;99.90
12335;DHT22;6233;51.560;9.986;2022-10-31T08:07:37;16.00;99.90
12335;DHT22;6233;51.560;9.986;2022-10-31T08:10:39;16.20;99.90
12335;DHT22;6233;51.560;9.986;2022-10-31T08:13:41;16.40;99.90
12335;DHT22;6233;51.560;9.986;2022-10-31T08:16:44;16.40;99.90
12335;DHT22;6233;51.560;9.986;2022-10-31T08:19:52;16.50;99.90
12335;DHT22;6233;51.560;9.986;2022-10-31T08:22:55;16.50;99.90
12335;DHT22;6233;51.560;9.986;2022-10-31T08:25:57;16.50;99.90
12335;DHT22;6233;51.560;9.986;2022-10-31T08:28:59;16.60;99.90
12335;DHT22;6233;51.560;9.986;2022-10-31T08:32:00;16.90;99.90
12335;DHT22;6233;51.560;9.986;2022-10-31T08:35:02;17.10;99.90
12335;DHT22;6233;51.560;9.986;2022-10-31T08:38:04;17.30;99.90
12335;DHT22;6233;51.560;9.986;2022-10-31T08:41:06;17.40;99.90
12335;DHT22;6233;51.560;9.986;2022-10-31T08:44:07;17.50;99.90
12335;DHT22;6233;51.560;9.986;2022-10-31T08:47:09;17.60;99.90
12335;DHT22;6233;51.560;9.986;2022-10-31T08:50:11;17.50;99.90
12335;DHT22;6233;51.560;9.986;2022-10-31T08:53:17;17.60;99.90
12335;DHT22;6233;51.560;9.986;2022-10-31T08:56:19;17.60;99.90
12335;DHT22;6233;51.560;9.986;2022-10-31T08:59:21;17.60;99.90
12335;DHT22;6233;51.560;9.986;2022-10-31T09:02:23;17.80;99.90
12335;DHT22;6233;51.560;9.986;2022-10-31T09:05:25;17.80;99.90
12335;DHT22;6233;51.560;9.986;2022-10-31T09:08:29;17.90;99.90
12335;DHT22;6233;51.560;9.986;2022-10-31T09:11:31;18.00;99.90
12335;DHT22;6233;51.560;9.986;2022-10-31T09:14:33;18.00;99.90
12335;DHT22;6233;51.560;9.986;2022-10-31T09:17:35;18.00;99.90
12335;DHT22;6233;51.560;9.986;2022-10-31T09:20:38;18.10;99.90
12335;DHT22;6233;51.560;9.986;2022-10-31T09:23:40;18.30;99.90
12335;DHT22;6233;51.560;9.986;2022-10-31T09:26:41;18.50;99.90
12335;DHT22;6233;51.560;9.986;2022-10-31T09:29:43;18.70;99.90
12335;DHT22;6233;51.560;9.986;2022-10-31T09:32:45;18.90;99.90
12335;DHT22;6233;51.560;9.986;2022-10-31T09:35:47;19.10;99.90
12335;DHT22;6233;51.560;9.986;2022-10-31T09:38:51;19.20;99.90
12335;DHT22;6233;51.560;9.986;2022-10-31T09:49:01;19.10;99.90
12335;DHT22;6233;51.560;9.986;2022-10-31T09:52:20;19.10;99.90
12335;DHT22;6233;51.560;9.986;2022-10-31T09:55:40;19.30;99.90
12335;DHT22;6233;51.560;9.986;2022-10-31T09:58:48;19.40;99.90
12335;DHT22;6233;51.560;9.986;2022-10-31T10:08:48;19.80;99.90
12335;DHT22;6233;51.560;9.986;2022-10-31T10:18:36;20.00;99.90
12335;DHT22;6233;51.560;9.986;2022-10-31T10:21:56;20.00;99.90
12335;DHT22;6233;51.560;9.986;2022-10-31T10:25:22;20.00;99.90
12335;DHT22;6233;51.560;9.986;2022-10-31T10:28:33;19.90;99.90
12335;DHT22;6233;51.560;9.986;2022-10-31T10:31:41;20.00;99.90
12335;DHT22;6233;51.560;9.986;2022-10-31T10:34:48;19.90;99.90
12335;DHT22;6233;51.560;9.986;2022-10-31T10:38:11;19.90;99.90
12335;DHT22;6233;51.560;9.986;2022-10-31T10:41:20;19.90;99.90
12335;DHT22;6233;51.560;9.986;2022-10-31T10:44:23;19.80;99.90
12335;DHT22;6233;51.560;9.986;2022-10-31T10:47:26;19.70;99.90
12335;DHT22;6233;51.560;9.986;2022-10-31T10:50:46;19.70;99.90
12335;DHT22;6233;51.560;9.986;2022-10-31T10:53:59;19.70;99.90
12335;DHT22;6233;51.560;9.986;2022-10-31T10:57:27;19.60;99.90
12335;DHT22;6233;51.560;9.986;2022-10-31T11:00:42;19.60;99.90
12335;DHT22;6233;51.560;9.986;2022-10-31T11:03:45;19.50;99.90
12335;DHT22;6233;51.560;9.986;2022-10-31T11:06:57;19.30;99.90
12335;DHT22;6233;51.560;9.986;2022-10-31T11:10:06;19.10;99.90
12335;DHT22;6233;51.560;9.986;2022-10-31T11:13:17;19.10;99.90
12335;DHT22;6233;51.560;9.986;2022-10-31T11:16:28;19.20;99.90
12335;DHT22;6233;51.560;9.986;2022-10-31T11:19:30;19.20;99.90
12335;DHT22;6233;51.560;9.986;2022-10-31T11:22:33;19.30;99.90
12335;DHT22;6233;51.560;9.986;2022-10-31T11:25:34;19.20;99.90
12335;DHT22;6233;51.560;9.986;2022-10-31T11:28:36;19.10;99.90
12335;DHT22;6233;51.560;9.986;2022-10-31T11:31:38;19.00;99.90
12335;DHT22;6233;51.560;9.986;2022-10-31T11:34:45;19.00;99.90
12335;DHT22;6233;51.560;9.986;2022-10-31T11:37:52;19.10;99.90
12335;DHT22;6233;51.560;9.986;2022-10-31T11:41:18;19.00;99.90
12335;DHT22;6233;51.560;9.986;2022-10-31T11:44:23;19.00;99.90
12335;DHT22;6233;51.560;9.986;2022-10-31T11:47:31;19.00;99.90
12335;DHT22;6233;51.560;9.986;2022-10-31T11:50:39;18.90;99.90
12335;DHT22;6233;51.560;9.986;2022-10-31T11:53:51;18.90;99.90
12335;DHT22;6233;51.560;9.986;2022-10-31T11:57:00;18.80;99.90
12335;DHT22;6233;51.560;9.986;2022-10-31T12:00:04;18.70;99.90
12335;DHT22;6233;51.560;9.986;2022-10-31T12:03:33;18.80;99.90
12335;DHT22;6233;51.560;9.986;2022-10-31T12:06:41;18.70;99.90
12335;DHT22;6233;51.560;9.986;2022-10-31T12:09:43;18.70;99.90
12335;DHT22;6233;51.560;9.986;2022-10-31T12:16:00;18.70;99.90
12335;DHT22;6233;51.560;9.986;2022-10-31T12:25:35;18.60;99.90
12335;DHT22;6233;51.560;9.986;2022-10-31T12:29:03;18.60;99.90
12335;DHT22;6233;51.560;9.986;2022-10-31T12:32:15;18.50;99.90
12335;DHT22;6233;51.560;9.986;2022-10-31T12:42:36;18.50;99.90
12335;DHT22;6233;51.560;9.986;2022-10-31T12:45:53;18.50;99.90
12335;DHT22;6233;51.560;9.986;2022-10-31T12:59:26;18.40;99.90
12335;DHT22;6233;51.560;9.986;2022-10-31T13:02:55;18.40;99.90
12335;DHT22;6233;51.560;9.986;2022-10-31T13:06:03;18.40;99.90
12335;DHT22;6233;51.560;9.986;2022-10-31T13:09:10;18.40;99.90
12335;DHT22;6233;51.560;9.986;2022-10-31T13:12:17;18.30;99.90
12335;DHT22;6233;51.560;9.986;2022-10-31T13:15:30;18.30;99.90
12335;DHT22;6233;51.560;9.986;2022-10-31T13:18:49;18.40;99.90
12335;DHT22;6233;51.560;9.986;2022-10-31T13:22:25;18.30;99.90
12335;DHT22;6233;51.560;9.986;2022-10-31T13:25:33;18.30;99.90
12335;DHT22;6233;51.560;9.986;2022-10-31T13:28:54;18.30;99.90
12335;DHT22;6233;51.560;9.986;2022-10-31T13:31:57;18.20;99.90
12335;DHT22;6233;51.560;9.986;2022-10-31T13:34:59;18.10;99.90
12335;DHT22;6233;51.560;9.986;2022-10-31T13:41:47;18.10;99.90
12335;DHT22;6233;51.560;9.986;2022-10-31T13:44:50;18.10;99.90
12335;DHT22;6233;51.560;9.986;2022-10-31T13:51:30;17.80;99.90
12335;DHT22;6233;51.560;9.986;2022-10-31T13:54:33;17.80;99.90
12335;DHT22;6233;51.560;9.986;2022-10-31T13:57:38;17.80;99.90
12335;DHT22;6233;51.560;9.986;2022-10-31T14:00:43;17.70;99.90
12335;DHT22;6233;51.560;9.986;2022-10-31T14:03:47;17.60;99.90
12335;DHT22;6233;51.560;9.986;2022-10-31T14:07:13;17.60;99.90
12335;DHT22;6233;51.560;9.986;2022-10-31T14:10:25;17.60;99.90
12335;DHT22;6233;51.560;9.986;2022-10-31T14:13:38;17.50;99.90
12335;DHT22;6233;51.560;9.986;2022-10-31T14:16:44;17.40;99.90
12335;DHT22;6233;51.560;9.986;2022-10-31T14:20:02;17.40;99.90
12335;DHT22;6233;51.560;9.986;2022-10-31T14:26:33;17.30;99.90
12335;DHT22;6233;51.560;9.986;2022-10-31T14:29:35;17.20;99.90
12335;DHT22;6233;51.560;9.986;2022-10-31T14:32:37;17.20;99.90
12335;DHT22;6233;51.560;9.986;2022-10-31T14:36:09;17.20;99.90
12335;DHT22;6233;51.560;9.986;2022-10-31T14:39:29;17.10;99.90
12335;DHT22;6233;51.560;9.986;2022-10-31T14:52:18;16.90;99.90
12335;DHT22;6233;51.560;9.986;2022-10-31T14:55:21;16.80;99.90
12335;DHT22;6233;51.560;9.986;2022-10-31T14:58:38;16.80;99.90
12335;DHT22;6233;51.560;9.986;2022-10-31T15:02:09;16.80;99.90
12335;DHT22;6233;51.560;9.986;2022-10-31T15:05:13;16.70;99.90
12335;DHT22;6233;51.560;9.986;2022-10-31T15:11:37;16.60;99.90
12335;DHT22;6233;51.560;9.986;2022-10-31T15:14:39;16.50;99.90
12335;DHT22;6233;51.560;9.986;2022-10-31T15:18:13;16.50;99.90
12335;DHT22;6233;51.560;9.986;2022-10-31T15:21:18;16.50;99.90
12335;DHT22;6233;51.560;9.986;2022-10-31T15:24:32;16.50;99.90
12335;DHT22;6233;51.560;9.986;2022-10-31T15:27:34;16.40;99.90
12335;DHT22;6233;51.560;9.986;2022-10-31T15:30:36;16.30;99.90
12335;DHT22;6233;51.560;9.986;2022-10-31T15:33:42;16.30;99.90
12335;DHT22;6233;51.560;9.986;2022-10-31T15:36:49;16.30;99.90
12335;DHT22;6233;51.560;9.986;2022-10-31T15:39:54;16.30;99.90
12335;DHT22;6233;51.560;9.986;2022-10-31T15:43:04;16.30;99.90
12335;DHT22;6233;51.560;9.986;2022-10-31T15:46:09;16.30;99.90
12335;DHT22;6233;51.560;9.986;2022-10-31T15:49:35;16.20;99.90
12335;DHT22;6233;51.560;9.986;2022-10-31T15:52:42;16.20;99.90
12335;DHT22;6233;51.560;9.986;2022-10-31T15:56:00;16.20;99.90
12335;DHT22;6233;51.560;9.986;2022-10-31T15:59:02;16.20;99.90
12335;DHT22;6233;51.560;9.986;2022-10-31T16:02:11;16.10;99.90
12335;DHT22;6233;51.560;9.986;2022-10-31T16:05:16;16.00;99.90
12335;DHT22;6233;51.560;9.986;2022-10-31T16:11:36;16.00;99.90
12335;DHT22;6233;51.560;9.986;2022-10-31T16:14:39;15.90;99.90
12335;DHT22;6233;51.560;9.986;2022-10-31T16:17:45;15.90;99.90
12335;DHT22;6233;51.560;9.986;2022-10-31T16:20:53;15.90;99.90
12335;DHT22;6233;51.560;9.986;2022-10-31T16:24:00;15.90;99.90
12335;DHT22;6233;51.560;9.986;2022-10-31T16:27:20;15.90;99.90
12335;DHT22;6233;51.560;9.986;2022-10-31T16:30:41;15.90;99.90
12335;DHT22;6233;51.560;9.986;2022-10-31T16:33:49;15.90;99.90
12335;DHT22;6233;51.560;9.986;2022-10-31T16:36:51;15.90;99.90
12335;DHT22;6233;51.560;9.986;2022-10-31T16:40:04;15.90;99.90
12335;DHT22;6233;51.560;9.986;2022-10-31T16:43:11;15.80;99.90
12335;DHT22;6233;51.560;9.986;2022-10-31T16:46:15;15.80;99.90
12335;DHT22;6233;51.560;9.986;2022-10-31T16:49:19;15.80;99.90
12335;DHT22;6233;51.560;9.986;2022-10-31T16:52:20;15.70;99.90
12335;DHT22;6233;51.560;9.986;2022-10-31T16:55:22;15.70;99.90
12335;DHT22;6233;51.560;9.986;2022-10-31T16:58:27;15.70;99.90
12335;DHT22;6233;51.560;9.986;2022-10-31T17:01:29;15.70;99.90
12335;DHT22;6233;51.560;9.986;2022-10-31T17:04:32;15.70;99.90
12335;DHT22;6233;51.560;9.986;2022-10-31T17:07:33;15.70;99.90
12335;DHT22;6233;51.560;9.986;2022-10-31T17:10:35;15.70;99.90
12335;DHT22;6233;51.560;9.986;2022-10-31T17:13:38;15.60;99.90
12335;DHT22;6233;51.560;9.986;2022-10-31T17:16:39;15.60;99.90
12335;DHT22;6233;51.560;9.986;2022-10-31T17:19:44;15.60;99.90
12335;DHT22;6233;51.560;9.986;2022-10-31T17:22:56;15.60;99.90
12335;DHT22;6233;51.560;9.986;2022-10-31T17:25:59;15.50;99.90
12335;DHT22;6233;51.560;9.986;2022-10-31T17:29:01;15.50;99.90
12335;DHT22;6233;51.560;9.986;2022-10-31T17:32:04;15.50;99.90
12335;DHT22;6233;51.560;9.986;2022-10-31T17:35:07;15.50;99.90
12335;DHT22;6233;51.560;9.986;2022-10-31T17:38:08;15.50;99.90
12335;DHT22;6233;51.560;9.986;2022-10-31T17:41:10;15.50;99.90
12335;DHT22;6233;51.560;9.986;2022-10-31T17:44:12;15.50;99.90
12335;DHT22;6233;51.560;9.986;2022-10-31T17:47:13;15.40;99.90
12335;DHT22;6233;51.560;9.986;2022-10-31T17:50:16;15.50;99.90
12335;DHT22;6233;51.560;9.986;2022-10-31T17:53:18;15.40;99.90
12335;DHT22;6233;51.560;9.986;2022-10-31T17:56:20;15.40;99.90
12335;DHT22;6233;51.560;9.986;2022-10-31T17:59:21;15.40;99.90
12335;DHT22;6233;51.560;9.986;2022-10-31T18:02:23;15.40;99.90
12335;DHT22;6233;51.560;9.986;2022-10-31T18:05:28;15.30;99.90
12335;DHT22;6233;51.560;9.986;2022-10-31T18:08:33;15.20;99.90
12335;DHT22;6233;51.560;9.986;2022-10-31T18:11:38;15.20;99.90
12335;DHT22;6233;51.560;9.986;2022-10-31T18:14:40;15.20;99.90
12335;DHT22;6233;51.560;9.986;2022-10-31T18:17:48;15.20;99.90
12335;DHT22;6233;51.560;9.986;2022-10-31T18:20:50;15.20;99.90
12335;DHT22;6233;51.560;9.986;2022-10-31T18:23:56;15.20;99.90
12335;DHT22;6233;51.560;9.986;2022-10-31T18:26:57;15.20;99.90
12335;DHT22;6233;51.560;9.986;2022-10-31T18:29:59;15.10;99.90
12335;DHT22;6233;51.560;9.986;2022-10-31T18:33:01;15.10;99.90
12335;DHT22;6233;51.560;9.986;2022-10-31T18:36:15;15.20;99.90
12335;DHT22;6233;51.560;9.986;2022-10-31T18:39:16;15.20;99.90
12335;DHT22;6233;51.560;9.986;2022-10-31T18:42:18;15.10;99.90
12335;DHT22;6233;51.560;9.986;2022-10-31T18:45:20;15.10;99.90
12335;DHT22;6233;51.560;9.986;2022-10-31T18:48:43;15.00;99.90
12335;DHT22;6233;51.560;9.986;2022-10-31T18:51:44;15.00;99.90
12335;DHT22;6233;51.560;9.986;2022-10-31T18:54:46;15.00;99.90
12335;DHT22;6233;51.560;9.986;2022-10-31T18:57:48;14.90;99.90
12335;DHT22;6233;51.560;9.986;2022-10-31T19:00:49;14.90;99.90
12335;DHT22;6233;51.560;9.986;2022-10-31T19:03:55;14.90;99.90
12335;DHT22;6233;51.560;9.986;2022-10-31T19:06:57;14.90;99.90
12335;DHT22;6233;51.560;9.986;2022-10-31T19:10:00;14.90;99.90
12335;DHT22;6233;51.560;9.986;2022-10-31T19:13:01;14.80;99.90
12335;DHT22;6233;51.560;9.986;2022-10-31T19:16:09;14.80;99.90
12335;DHT22;6233;51.560;9.986;2022-10-31T19:19:10;14.80;99.90
12335;DHT22;6233;51.560;9.986;2022-10-31T19:22:12;14.80;99.90
12335;DHT22;6233;51.560;9.986;2022-10-31T19:25:14;14.80;99.90
12335;DHT22;6233;51.560;9.986;2022-10-31T19:28:21;14.80;99.90
12335;DHT22;6233;51.560;9.986;2022-10-31T19:31:22;14.70;99.90
12335;DHT22;6233;51.560;9.986;2022-10-31T19:34:24;14.70;99.90
12335;DHT22;6233;51.560;9.986;2022-10-31T19:37:26;14.70;99.90
12335;DHT22;6233;51.560;9.986;2022-10-31T19:40:28;14.70;99.90
12335;DHT22;6233;51.560;9.986;2022-10-31T19:43:29;14.60;99.90
12335;DHT22;6233;51.560;9.986;2022-10-31T19:46:31;14.50;99.90
12335;DHT22;6233;51.560;9.986;2022-10-31T19:49:53;14.50;99.90
12335;DHT22;6233;51.560;9.986;2022-10-31T19:52:54;14.50;99.90
12335;DHT22;6233;51.560;9.986;2022-10-31T19:55:57;14.50;99.90
12335;DHT22;6233;51.560;9.986;2022-10-31T19:58:58;14.40;99.90
12335;DHT22;6233;51.560;9.986;2022-10-31T20:02:00;14.40;99.90
12335;DHT22;6233;51.560;9.986;2022-10-31T20:05:02;14.30;99.90
12335;DHT22;6233;51.560;9.986;2022-10-31T20:08:04;14.30;99.90
12335;DHT22;6233;51.560;9.986;2022-10-31T20:11:05;14.30;99.90
12335;DHT22;6233;51.560;9.986;2022-10-31T20:14:11;14.30;99.90
12335;DHT22;6233;51.560;9.986;2022-10-31T20:17:13;14.30;99.90
12335;DHT22;6233;51.560;9.986;2022-10-31T20:20:15;14.30;99.90
12335;DHT22;6233;51.560;9.986;2022-10-31T20:23:19;14.30;99.90
12335;DHT22;6233;51.560;9.986;2022-10-31T20:26:21;14.20;99.90
12335;DHT22;6233;51.560;9.986;2022-10-31T20:29:23;14.30;99.90
12335;DHT22;6233;51.560;9.986;2022-10-31T20:32:25;14.20;99.90
12335;DHT22;6233;51.560;9.986;2022-10-31T20:35:26;14.20;99.90
12335;DHT22;6233;51.560;9.986;2022-10-31T20:38:28;14.20;99.90
12335;DHT22;6233;51.560;9.986;2022-10-31T20:41:30;14.20;99.90
12335;DHT22;6233;51.560;9.986;2022-10-31T20:44:32;14.20;99.90
12335;DHT22;6233;51.560;9.986;2022-10-31T20:47:33;14.20;99.90
12335;DHT22;6233;51.560;9.986;2022-10-31T20:50:37;14.20;99.90
12335;DHT22;6233;51.560;9.986;2022-10-31T20:53:39;14.20;99.90
12335;DHT22;6233;51.560;9.986;2022-10-31T20:56:44;14.30;99.90
12335;DHT22;6233;51.560;9.986;2022-10-31T20:59:45;14.30;99.90
12335;DHT22;6233;51.560;9.986;2022-10-31T21:02:47;14.30;99.90
12335;DHT22;6233;51.560;9.986;2022-10-31T21:06:00;14.30;99.90
12335;DHT22;6233;51.560;9.986;2022-10-31T21:09:02;14.40;99.90
12335;DHT22;6233;51.560;9.986;2022-10-31T21:12:04;14.40;99.90
12335;DHT22;6233;51.560;9.986;2022-10-31T21:15:07;14.40;99.90
12335;DHT22;6233;51.560;9.986;2022-10-31T21:18:09;14.40;99.90
12335;DHT22;6233;51.560;9.986;2022-10-31T21:21:14;14.40;99.90